Boling, Texas
Current Conditions -  °F | °C
As of 10:15 AM on Sunday 25 Jan 2015 (Local Time) from KARM Reporting Station
Clear Clear  
Wind Chill: 55°   Ceiling: Unl
Heat Index: 55°   Visibility: 10mi
Dew Point: 43°   Wind: 9mph
Humidity: 63%   Direction: 240°WSW
Pressure: 30.08"   Gusts: NA
Location:  29.26°N, 95.94°W
Report Text: KARM 251615Z AUTO 24008KT 10SM CLR 13/06 A3008 RMK AO2 T01300062
Loading
Personal Weather Stations






























Interactive Weather Map New forecast layout! Learn more

10-Day Weather Forecast

Advertisements
Track Severe Weather on mobile